Terminal Aerodrome Forecast
Issued by NWS Pocatello, ID

Home | Current Version | Previous Version | Text Only | Print | Product List | Glossary On
Versions: 1 2 3 4 5 6 7 8 9 10 11 12 13 14 15 16 17 18 19 20 21
456
FTUS45 KPIH 152320
TAFIDA
TAF
KIDA 152320Z 1600/1624 VRB04KT P6SM SCT035 SCT100 BKN150
     FM160900 24005KT 2SM -SN BR SCT008 BKN015 OVC040
     FM161200 21006KT 1SM -SN BR OVC008
     FM161500 27006KT 2SM -SN BR OVC008
     FM161900 33008KT 6SM BR VCSH SCT004 BKN015 OVC050=

USA.gov is the U.S. government's official web portal to all federal, state and local government web resources and services.